Time;durP1;ratioP1;P1;durP2;ratioP2;P2;SDS_P1;SDS_P2;PMS_P1;PMS_P2;Temp;Humidity;BMP_temperature;BMP_pressure;BME280_temperature;BME280_humidity;BME280_pressure;Samples;Min_cycle;Max_cycle;Signal;HPM_P1;HPM_P2
2021/01/13 00:01:05;;;;;;;5.38;4.78;;;1.60;99.90;;;;;;5091596;28;20143;-76
2021/01/13 00:03:31;;;;;;;5.10;4.47;;;1.60;99.90;;;;;;5091533;28;20073;-75
2021/01/13 00:05:56;;;;;;;4.18;3.72;;;1.60;99.90;;;;;;5097349;28;20104;-75
2021/01/13 00:08:22;;;;;;;4.60;4.15;;;1.60;99.90;;;;;;5091128;28;20091;-76
2021/01/13 00:10:47;;;;;;;4.63;3.80;;;1.50;99.90;;;;;;5082135;28;20584;-76
2021/01/13 00:13:13;;;;;;;4.38;3.95;;;1.50;99.90;;;;;;5095197;28;20088;-75
2021/01/13 00:15:38;;;;;;;4.15;3.75;;;1.50;99.90;;;;;;5096945;28;20081;-75
2021/01/13 00:18:04;;;;;;;4.93;3.95;;;1.50;99.90;;;;;;5095897;28;20119;-76
2021/01/13 00:20:30;;;;;;;4.88;4.47;;;1.40;99.90;;;;;;5094558;28;20134;-75
2021/01/13 00:22:55;;;;;;;4.63;4.13;;;1.40;99.90;;;;;;5073827;28;20072;-74
2021/01/13 00:25:21;;;;;;;5.20;4.15;;;1.40;99.90;;;;;;5083615;28;20072;-75
2021/01/13 00:27:46;;;;;;;4.80;3.88;;;1.40;99.90;;;;;;5096377;28;20150;-76
2021/01/13 00:30:14;;;;;;;4.15;3.67;;;1.50;99.90;;;;;;5102609;28;20076;-75
2021/01/13 00:32:52;;;;;;;4.43;3.80;;;1.50;99.90;;;;;;5047898;28;20423;-75
2021/01/13 00:35:18;;;;;;;5.63;4.55;;;1.50;99.90;;;;;;5064512;28;20138;-76
2021/01/13 00:37:43;;;;;;;4.55;4.13;;;1.30;99.90;;;;;;5058259;28;20615;-75
2021/01/13 00:40:10;;;;;;;3.80;3.40;;;1.40;99.90;;;;;;5046169;28;20109;-75
2021/01/13 00:42:43;;;;;;;4.72;3.88;;;1.30;99.90;;;;;;5053978;28;20077;-75
2021/01/13 00:45:09;;;;;;;6.40;4.25;;;1.20;99.90;;;;;;5060606;28;20103;-75
2021/01/13 00:47:35;;;;;;;5.90;4.00;;;1.20;99.90;;;;;;5051169;28;20094;-75
2021/01/13 00:50:00;;;;;;;9.90;4.72;;;1.30;99.90;;;;;;5055100;28;20836;-76
2021/01/13 00:52:26;;;;;;;6.72;4.25;;;1.30;99.90;;;;;;5046079;28;20184;-75
2021/01/13 00:54:51;;;;;;;5.22;4.68;;;1.30;99.90;;;;;;5044829;28;20078;-74
2021/01/13 00:57:17;;;;;;;7.63;5.03;;;1.20;99.90;;;;;;5058886;28;20082;-74
2021/01/13 00:59:42;;;;;;;7.75;4.45;;;1.30;99.90;;;;;;5063483;28;20117;-74
2021/01/13 01:02:08;;;;;;;5.82;4.13;;;1.20;99.90;;;;;;5051955;28;20173;-74
2021/01/13 01:04:33;;;;;;;6.43;4.18;;;1.20;99.90;;;;;;5044221;28;20448;-74
2021/01/13 01:07:03;;;;;;;4.35;3.80;;;1.10;99.90;;;;;;5052584;28;20077;-74
2021/01/13 01:09:29;;;;;;;6.15;4.15;;;1.10;99.90;;;;;;5064691;28;20492;-75
2021/01/13 01:11:54;;;;;;;6.30;4.22;;;1.10;99.90;;;;;;5052301;28;20126;-74
2021/01/13 01:14:20;;;;;;;4.68;4.10;;;1.00;99.90;;;;;;5050442;28;20517;-74
2021/01/13 01:16:45;;;;;;;5.65;3.95;;;1.00;99.90;;;;;;5049261;28;20108;-74
2021/01/13 01:19:11;;;;;;;6.07;4.22;;;1.00;99.90;;;;;;5048020;28;20162;-74
2021/01/13 01:21:41;;;;;;;7.13;4.63;;;1.00;99.90;;;;;;5057149;28;20078;-74
2021/01/13 01:24:07;;;;;;;7.25;5.05;;;1.00;99.90;;;;;;5057676;28;20096;-74
2021/01/13 01:26:40;;;;;;;8.45;5.43;;;0.90;99.90;;;;;;5055098;28;20078;-75
2021/01/13 01:29:06;;;;;;;6.95;5.05;;;0.90;99.90;;;;;;5046862;28;20104;-74
2021/01/13 01:31:31;;;;;;;7.82;4.93;;;0.90;99.90;;;;;;5045405;28;20097;-74
2021/01/13 01:33:57;;;;;;;6.88;4.97;;;0.80;99.90;;;;;;5058723;28;20081;-73
2021/01/13 01:36:22;;;;;;;4.68;3.75;;;0.80;99.90;;;;;;5063734;28;20086;-74
2021/01/13 01:38:48;;;;;;;5.35;4.20;;;0.90;99.90;;;;;;5045596;28;20093;-74
2021/01/13 01:41:15;;;;;;;6.85;4.70;;;0.90;99.90;;;;;;5060470;28;20154;-73
2021/01/13 01:43:43;;;;;;;5.63;4.13;;;0.90;99.90;;;;;;5045419;28;20545;-74
2021/01/13 01:46:09;;;;;;;5.20;4.07;;;0.90;99.90;;;;;;5035987;28;20078;-74
2021/01/13 01:48:51;;;;;;;5.47;4.05;;;1.00;99.90;;;;;;5035977;28;20100;-73
2021/01/13 01:51:22;;;;;;;6.05;3.95;;;1.00;99.90;;;;;;5031697;28;20090;-74
2021/01/13 01:53:53;;;;;;;5.22;4.30;;;1.00;99.90;;;;;;5046262;28;20078;-73
2021/01/13 01:56:19;;;;;;;5.47;4.07;;;0.90;99.90;;;;;;5032157;28;20082;-74
2021/01/13 01:58:57;;;;;;;5.88;4.65;;;0.90;99.90;;;;;;5032527;28;20132;-74
2021/01/13 02:01:37;;;;;;;5.22;4.18;;;0.90;99.90;;;;;;5032001;28;20668;-74
2021/01/13 02:04:06;;;;;;;5.65;3.90;;;0.90;99.90;;;;;;5029551;28;20577;-74
2021/01/13 02:06:33;;;;;;;5.13;4.25;;;1.00;99.90;;;;;;5037064;28;20089;-74
2021/01/13 02:08:59;;;;;;;6.82;4.78;;;1.00;99.90;;;;;;5047914;28;20200;-74
2021/01/13 02:11:26;;;;;;;6.10;4.43;;;1.00;99.90;;;;;;5044911;28;20749;-74
2021/01/13 02:13:52;;;;;;;6.45;4.93;;;0.90;99.90;;;;;;5031928;28;20073;-74
2021/01/13 02:16:19;;;;;;;6.93;4.43;;;0.80;99.90;;;;;;5046201;28;20088;-74
2021/01/13 02:18:46;;;;;;;12.80;7.00;;;0.90;99.90;;;;;;5037207;28;20105;-74
2021/01/13 02:21:15;;;;;;;6.32;4.93;;;1.00;99.90;;;;;;5032275;28;20089;-74
2021/01/13 02:23:52;;;;;;;6.05;4.00;;;1.00;99.90;;;;;;5030173;28;20093;-74
2021/01/13 02:26:57;;;;;;;8.18;5.15;;;1.10;99.90;;;;;;5042697;28;20484;-74
2021/01/13 02:29:24;;;;;;;10.68;5.13;;;1.00;99.90;;;;;;5047622;28;20094;-74
2021/01/13 02:31:58;;;;;;;7.35;4.40;;;0.90;99.90;;;;;;5031202;28;20105;-74
2021/01/13 02:34:36;;;;;;;7.18;4.32;;;1.00;99.90;;;;;;5032319;28;20069;-74
2021/01/13 02:37:18;;;;;;;4.88;3.83;;;1.00;99.90;;;;;;5047329;28;20167;-74
2021/01/13 02:39:45;;;;;;;5.63;4.25;;;0.90;99.90;;;;;;5046792;28;20655;-74
2021/01/13 02:42:20;;;;;;;7.57;4.18;;;0.90;99.90;;;;;;5033150;28;20108;-74
2021/01/13 02:45:07;;;;;;;5.05;3.53;;;0.90;99.90;;;;;;5032463;28;20085;-74
2021/01/13 02:47:58;;;;;;;5.60;3.25;;;1.00;99.90;;;;;;5032084;28;20112;-74
2021/01/13 02:50:28;;;;;;;5.68;4.10;;;1.10;99.90;;;;;;5031103;28;20081;-74
2021/01/13 02:53:14;;;;;;;9.02;4.55;;;1.10;99.90;;;;;;5030360;28;20194;-74
2021/01/13 02:55:48;;;;;;;10.50;5.57;;;1.10;99.90;;;;;;5030575;28;20101;-74
2021/01/13 02:58:24;;;;;;;7.75;3.90;;;0.90;99.90;;;;;;5027155;28;20608;-74
2021/01/13 03:00:51;;;;;;;5.90;4.20;;;0.90;99.90;;;;;;5031338;28;20139;-74
2021/01/13 03:03:18;;;;;;;7.35;4.80;;;0.90;99.90;;;;;;5030606;28;20111;-74
2021/01/13 03:05:46;;;;;;;5.70;4.20;;;0.90;99.90;;;;;;5029647;28;20078;-74
2021/01/13 03:08:13;;;;;;;6.00;4.53;;;0.90;99.90;;;;;;5056709;28;20104;-74
2021/01/13 03:10:42;;;;;;;7.13;4.20;;;0.90;99.90;;;;;;5028736;28;20131;-74
2021/01/13 03:13:08;;;;;;;8.93;4.78;;;0.90;99.90;;;;;;5038931;28;20074;-74
2021/01/13 03:15:36;;;;;;;7.50;5.10;;;0.80;99.90;;;;;;5037608;28;20070;-74
2021/01/13 03:18:06;;;;;;;5.95;4.30;;;0.90;99.90;;;;;;5041351;28;20125;-74
2021/01/13 03:20:54;;;;;;;8.43;4.57;;;0.90;99.90;;;;;;5031617;28;20081;-74
2021/01/13 03:23:19;;;;;;;5.07;3.72;;;0.80;99.90;;;;;;5047809;28;20078;-75
2021/01/13 03:25:57;;;;;;;11.50;5.25;;;0.90;99.90;;;;;;5033363;28;20077;-74
2021/01/13 03:28:25;;;;;;;7.70;4.22;;;0.90;99.90;;;;;;5030062;28;20082;-74
2021/01/13 03:30:52;;;;;;;7.20;4.72;;;0.80;99.90;;;;;;5030353;28;20089;-74
2021/01/13 03:33:24;;;;;;;7.20;4.97;;;0.60;99.90;;;;;;5037578;28;20069;-74
2021/01/13 03:36:05;;;;;;;6.57;4.43;;;0.80;99.90;;;;;;5030996;28;20621;-74
2021/01/13 03:38:32;;;;;;;6.70;4.53;;;0.80;99.90;;;;;;5065007;28;20084;-74
2021/01/13 03:41:07;;;;;;;5.85;3.97;;;0.80;99.90;;;;;;5039070;28;20174;-74
2021/01/13 03:43:37;;;;;;;5.55;4.10;;;0.90;99.90;;;;;;5030276;28;20077;-75
2021/01/13 03:46:08;;;;;;;5.80;3.97;;;1.00;99.90;;;;;;5028620;28;20085;-74
2021/01/13 03:48:48;;;;;;;6.80;4.90;;;0.90;99.90;;;;;;5029252;28;20178;-74
2021/01/13 03:51:49;;;;;;;8.52;5.05;;;1.00;99.90;;;;;;5029186;28;20576;-74
2021/01/13 03:54:18;;;;;;;9.35;4.55;;;0.90;99.90;;;;;;5030209;28;20093;-74
2021/01/13 03:56:59;;;;;;;7.00;4.43;;;0.80;99.90;;;;;;5029647;28;20086;-74
2021/01/13 03:59:54;;;;;;;6.55;4.68;;;0.70;99.90;;;;;;5028552;28;20098;-74
2021/01/13 04:02:36;;;;;;;6.97;4.40;;;0.70;99.90;;;;;;5026270;28;20088;-74
2021/01/13 04:05:27;;;;;;;8.80;5.32;;;0.80;99.90;;;;;;5029280;28;20084;-74
2021/01/13 04:07:55;;;;;;;7.18;4.80;;;0.80;99.90;;;;;;5038490;28;20108;-74
2021/01/13 04:10:21;;;;;;;7.15;4.70;;;0.90;99.90;;;;;;5036375;28;20859;-74
2021/01/13 04:12:58;;;;;;;7.20;4.75;;;1.10;99.90;;;;;;5029025;28;20106;-74
2021/01/13 04:15:37;;;;;;;28.35;6.07;;;1.00;99.90;;;;;;5044216;28;20101;-73
2021/01/13 04:18:04;;;;;;;7.25;5.03;;;1.00;99.90;;;;;;5029546;28;20102;-74
2021/01/13 04:20:31;;;;;;;7.50;4.50;;;1.10;99.90;;;;;;5028544;28;20113;-74
2021/01/13 04:22:57;;;;;;;7.22;4.57;;;1.20;99.90;;;;;;5044894;28;20115;-74
2021/01/13 04:25:23;;;;;;;6.25;4.47;;;1.00;99.90;;;;;;5030573;28;20091;-74
2021/01/13 04:27:49;;;;;;;7.22;4.13;;;1.10;99.90;;;;;;5027675;28;20909;-73
2021/01/13 04:30:16;;;;;;;9.52;4.30;;;1.10;99.90;;;;;;5029004;28;20082;-74
2021/01/13 04:32:41;;;;;;;8.38;5.13;;;1.00;99.90;;;;;;5029104;28;20094;-74
2021/01/13 04:35:07;;;;;;;8.05;4.18;;;1.00;99.90;;;;;;5027720;28;20080;-74
2021/01/13 04:37:35;;;;;;;6.40;4.32;;;1.00;99.90;;;;;;5043027;28;20105;-73
2021/01/13 04:40:23;;;;;;;8.07;4.63;;;1.00;99.90;;;;;;5047745;28;20076;-74
2021/01/13 04:43:09;;;;;;;8.60;4.88;;;1.10;99.90;;;;;;5044578;28;20078;-74
2021/01/13 04:45:47;;;;;;;8.38;4.97;;;1.00;99.90;;;;;;5026805;28;20081;-74
2021/01/13 04:48:17;;;;;;;9.70;5.18;;;1.00;99.90;;;;;;5027739;28;20100;-74
2021/01/13 04:50:48;;;;;;;9.75;5.82;;;1.00;99.90;;;;;;5029144;28;20066;-73
2021/01/13 04:53:16;;;;;;;10.65;5.40;;;0.90;99.90;;;;;;5034091;28;20077;-73
2021/01/13 04:55:50;;;;;;;8.85;5.22;;;0.90;99.90;;;;;;5026697;28;20132;-73
2021/01/13 04:58:47;;;;;;;8.48;5.68;;;0.80;99.90;;;;;;5027564;28;20101;-73
2021/01/13 05:01:31;;;;;;;8.05;5.30;;;0.80;99.90;;;;;;5031248;28;20097;-74
2021/01/13 05:04:15;;;;;;;7.67;4.50;;;0.90;99.90;;;;;;5042452;28;20078;-73
2021/01/13 05:06:49;;;;;;;8.30;4.93;;;0.80;99.90;;;;;;5026750;28;20429;-73
2021/01/13 05:09:18;;;;;;;7.88;5.80;;;0.70;99.90;;;;;;5030381;28;20165;-73
2021/01/13 05:11:48;;;;;;;9.65;6.15;;;0.80;99.90;;;;;;5027778;28;20093;-74
2021/01/13 05:14:15;;;;;;;9.18;5.63;;;0.90;99.90;;;;;;5033195;28;20124;-73
2021/01/13 05:16:50;;;;;;;7.88;5.20;;;0.80;99.90;;;;;;5032747;28;20483;-73
2021/01/13 05:19:34;;;;;;;9.63;5.25;;;0.80;99.90;;;;;;5039238;28;20066;-74
2021/01/13 05:22:01;;;;;;;10.82;6.03;;;0.70;99.90;;;;;;5038654;28;20078;-73
2021/01/13 05:24:29;;;;;;;10.77;5.45;;;0.70;99.90;;;;;;5038967;28;20553;-74
2021/01/13 05:27:00;;;;;;;8.23;4.53;;;0.70;99.90;;;;;;5030788;28;20088;-75
2021/01/13 05:29:38;;;;;;;11.77;5.00;;;0.80;99.90;;;;;;5031111;28;20508;-75
2021/01/13 05:32:06;;;;;;;11.48;5.38;;;0.80;99.90;;;;;;5031422;28;20155;-75
2021/01/13 05:34:38;;;;;;;8.63;5.30;;;0.70;99.90;;;;;;5032112;28;20093;-75
2021/01/13 05:37:12;;;;;;;9.05;6.10;;;0.70;99.90;;;;;;5059461;28;20531;-74
2021/01/13 05:39:39;;;;;;;8.68;6.00;;;0.90;99.90;;;;;;5039661;28;20135;-72
2021/01/13 05:42:05;;;;;;;8.63;5.63;;;0.70;99.90;;;;;;5034268;28;20487;-73
2021/01/13 05:44:31;;;;;;;7.60;5.40;;;0.80;99.90;;;;;;5030601;28;20553;-72
2021/01/13 05:47:05;;;;;;;11.85;5.13;;;0.90;99.90;;;;;;5032207;28;20081;-73
2021/01/13 05:49:32;;;;;;;9.30;5.13;;;0.90;99.90;;;;;;5030779;28;20078;-72
2021/01/13 05:52:06;;;;;;;10.65;5.50;;;0.80;99.90;;;;;;5046766;28;20101;-72
2021/01/13 05:54:44;;;;;;;8.43;5.37;;;0.70;99.90;;;;;;5029093;28;20078;-73
2021/01/13 05:57:13;;;;;;;9.15;5.40;;;0.70;99.90;;;;;;5047400;28;20104;-73
2021/01/13 05:59:39;;;;;;;9.73;5.93;;;0.50;99.90;;;;;;5034340;28;20082;-73
2021/01/13 06:02:10;;;;;;;8.98;6.22;;;0.50;99.90;;;;;;5041893;28;20545;-72
2021/01/13 06:04:36;;;;;;;11.05;5.82;;;0.50;99.90;;;;;;5028586;28;20169;-73
2021/01/13 06:07:09;;;;;;;9.82;6.13;;;0.80;99.90;;;;;;5039062;28;20173;-72
2021/01/13 06:09:40;;;;;;;8.82;5.47;;;0.70;99.90;;;;;;5037068;28;20070;-72
2021/01/13 06:12:12;;;;;;;12.25;5.90;;;0.80;99.90;;;;;;5032840;28;20106;-73
2021/01/13 06:14:38;;;;;;;10.75;5.93;;;0.70;99.90;;;;;;5042380;28;20120;-72
2021/01/13 06:17:05;;;;;;;8.20;4.88;;;0.60;99.90;;;;;;5035963;28;20101;-74
2021/01/13 06:19:32;;;;;;;9.82;4.72;;;0.60;99.90;;;;;;5047952;28;20571;-71
2021/01/13 06:22:09;;;;;;;9.25;5.03;;;0.70;99.90;;;;;;5037592;28;20136;-73
2021/01/13 06:24:36;;;;;;;8.57;5.53;;;0.70;99.90;;;;;;5030185;28;20084;-74
2021/01/13 06:27:20;;;;;;;6.97;4.68;;;0.70;99.90;;;;;;5034244;28;20694;-73
2021/01/13 06:29:58;;;;;;;7.32;4.82;;;0.50;99.90;;;;;;5037508;28;20168;-73
2021/01/13 06:32:31;;;;;;;6.55;4.63;;;0.60;99.90;;;;;;5045402;28;20189;-71
2021/01/13 06:35:18;;;;;;;8.30;4.88;;;0.60;99.90;;;;;;5028469;28;20100;-72
2021/01/13 06:37:57;;;;;;;10.10;5.15;;;0.60;99.90;;;;;;5040183;28;20109;-71
2021/01/13 06:40:23;;;;;;;6.38;4.10;;;0.40;99.90;;;;;;5036629;28;20117;-73
2021/01/13 06:42:48;;;;;;;6.57;3.72;;;0.50;99.90;;;;;;5030746;28;20112;-73
2021/01/13 06:45:29;;;;;;;8.75;4.10;;;0.40;99.90;;;;;;5030035;28;20086;-74
2021/01/13 06:47:56;;;;;;;6.53;3.58;;;0.50;99.90;;;;;;5030068;28;20125;-74
2021/01/13 06:50:39;;;;;;;7.82;3.78;;;0.30;99.90;;;;;;5057611;28;20688;-73
2021/01/13 06:53:09;;;;;;;9.30;3.80;;;0.30;99.90;;;;;;5041753;28;20085;-73
2021/01/13 06:55:36;;;;;;;5.75;3.72;;;0.20;99.90;;;;;;5045750;28;20066;-71
2021/01/13 06:58:16;;;;;;;6.00;3.38;;;0.40;99.90;;;;;;5037298;28;20189;-73
2021/01/13 07:00:43;;;;;;;14.93;4.28;;;0.30;99.90;;;;;;5039536;28;20070;-73
2021/01/13 07:03:27;;;;;;;9.65;4.50;;;0.30;99.90;;;;;;5031803;28;20109;-75
2021/01/13 07:05:53;;;;;;;9.38;4.38;;;0.10;99.90;;;;;;5030346;28;20165;-75
2021/01/13 07:08:20;;;;;;;7.88;4.22;;;0.10;99.90;;;;;;5034612;28;20093;-73
2021/01/13 07:10:46;;;;;;;9.25;4.18;;;0.10;99.90;;;;;;5030553;28;20077;-77
2021/01/13 07:13:15;;;;;;;9.30;5.18;;;0.10;99.90;;;;;;5034729;28;20089;-75
2021/01/13 07:15:42;;;;;;;8.40;5.40;;;0.10;99.90;;;;;;5045057;28;20150;-76
2021/01/13 07:18:08;;;;;;;9.82;5.45;;;0.00;99.90;;;;;;5031131;28;20090;-74
2021/01/13 07:20:41;;;;;;;11.32;4.97;;;0.00;99.90;;;;;;5033842;28;20082;-72
2021/01/13 07:23:10;;;;;;;9.95;4.60;;;0.10;99.90;;;;;;5049688;28;20077;-75
2021/01/13 07:25:46;;;;;;;9.05;5.25;;;0.20;99.90;;;;;;5030083;28;20656;-74
2021/01/13 07:28:13;;;;;;;11.50;5.40;;;0.10;99.90;;;;;;5038410;28;20109;-73
2021/01/13 07:30:40;;;;;;;9.35;4.93;;;0.10;99.90;;;;;;5046069;28;20074;-73
2021/01/13 07:33:13;;;;;;;7.10;4.63;;;-0.10;99.90;;;;;;5035387;28;20082;-77
2021/01/13 07:35:46;;;;;;;9.63;5.13;;;0.00;99.90;;;;;;5033483;28;20133;-74
2021/01/13 07:38:17;;;;;;;9.00;4.95;;;0.00;99.90;;;;;;5049863;28;20093;-77
2021/01/13 07:41:00;;;;;;;9.80;4.30;;;0.10;99.90;;;;;;5028098;28;20086;-74
2021/01/13 07:44:04;;;;;;;11.40;4.65;;;0.00;99.90;;;;;;5040045;28;20117;-74
2021/01/13 07:46:32;;;;;;;8.25;5.25;;;0.10;99.90;;;;;;5035112;28;20164;-74
2021/01/13 07:49:17;;;;;;;13.55;5.70;;;0.10;99.90;;;;;;5053020;28;20086;-74
2021/01/13 07:51:48;;;;;;;9.77;5.20;;;0.20;99.90;;;;;;5029632;28;20094;-74
2021/01/13 07:54:32;;;;;;;8.75;4.55;;;0.30;99.90;;;;;;5039102;28;20069;-74
2021/01/13 07:57:00;;;;;;;12.35;5.07;;;0.40;99.90;;;;;;5045500;28;21968;-75
2021/01/13 07:59:34;;;;;;;13.13;5.15;;;0.60;99.90;;;;;;5028533;28;20066;-73
2021/01/13 08:02:44;;;;;;;10.38;5.10;;;0.40;99.90;;;;;;5031408;28;20073;-74
2021/01/13 08:05:37;;;;;;;12.57;5.85;;;0.40;99.90;;;;;;5036792;28;20077;-74
2021/01/13 08:08:09;;;;;;;13.07;6.93;;;0.30;99.90;;;;;;5039436;28;20156;-74
2021/01/13 08:10:36;;;;;;;12.02;6.25;;;0.10;99.90;;;;;;5046161;28;20068;-74
2021/01/13 08:13:40;;;;;;;11.82;5.80;;;0.10;99.90;;;;;;5028903;28;20094;-74
2021/01/13 08:16:59;;;;;;;12.57;6.43;;;0.20;99.90;;;;;;5036181;28;20206;-74
2021/01/13 08:20:02;;;;;;;14.25;7.07;;;0.10;99.90;;;;;;5029496;28;20170;-75
2021/01/13 08:22:29;;;;;;;13.13;6.18;;;0.10;99.90;;;;;;5029034;28;20074;-74
2021/01/13 08:25:01;;;;;;;10.57;5.70;;;0.30;99.90;;;;;;5044613;28;20109;-75
2021/01/13 08:27:31;;;;;;;12.40;6.05;;;0.30;99.90;;;;;;5034923;28;20096;-74
2021/01/13 08:29:58;;;;;;;8.75;4.70;;;0.30;99.90;;;;;;5040068;28;20541;-74
2021/01/13 08:32:40;;;;;;;9.98;4.75;;;0.40;99.90;;;;;;5039748;28;20167;-73
2021/01/13 08:35:07;;;;;;;13.85;5.88;;;0.40;99.90;;;;;;5036184;28;20188;-74
2021/01/13 08:37:34;;;;;;;10.57;5.38;;;0.40;99.90;;;;;;5030656;28;21507;-74
2021/01/13 08:40:29;;;;;;;11.35;5.40;;;0.30;99.90;;;;;;5040814;28;20537;-75
2021/01/13 08:43:14;;;;;;;10.43;5.65;;;0.30;99.90;;;;;;5045744;28;20077;-75
2021/01/13 08:45:43;;;;;;;12.20;5.90;;;0.30;99.90;;;;;;5046496;28;20435;-75
2021/01/13 08:48:13;;;;;;;10.98;5.40;;;0.30;99.90;;;;;;5028792;28;20101;-73
2021/01/13 08:50:40;;;;;;;10.77;5.80;;;0.50;99.90;;;;;;5035238;28;20074;-74
2021/01/13 08:53:06;;;;;;;9.45;5.65;;;0.60;99.90;;;;;;5043686;28;20104;-73
2021/01/13 08:55:34;;;;;;;10.77;6.30;;;0.60;99.90;;;;;;5042700;28;20089;-74
2021/01/13 08:58:05;;;;;;;9.20;5.15;;;0.70;99.90;;;;;;5043238;28;20231;-77
2021/01/13 09:00:33;;;;;;;11.45;5.90;;;0.90;99.90;;;;;;5043576;28;20066;-76
2021/01/13 09:03:21;;;;;;;12.05;5.88;;;0.90;99.90;;;;;;5035419;28;20111;-77
2021/01/13 09:05:47;;;;;;;10.05;5.25;;;0.80;99.90;;;;;;5040889;28;20080;-75
2021/01/13 09:08:13;;;;;;;11.73;6.15;;;1.10;99.90;;;;;;5039927;28;20105;-73
2021/01/13 09:10:56;;;;;;;11.43;5.50;;;1.00;99.90;;;;;;5038028;28;20085;-74
2021/01/13 09:13:35;;;;;;;10.70;6.85;;;0.90;99.90;;;;;;5046070;28;20089;-75
2021/01/13 09:16:22;;;;;;;13.48;6.78;;;1.00;99.90;;;;;;5032478;28;20097;-74
2021/01/13 09:19:06;;;;;;;12.88;5.75;;;1.00;99.90;;;;;;5035504;28;20172;-74
2021/01/13 09:21:38;;;;;;;13.60;5.68;;;1.00;99.90;;;;;;5042007;28;20540;-75
2021/01/13 09:24:05;;;;;;;12.45;4.85;;;0.80;99.90;;;;;;5052736;28;20165;-74
2021/01/13 09:26:34;;;;;;;13.95;6.40;;;0.90;99.90;;;;;;5041299;28;20078;-74
2021/01/13 09:29:05;;;;;;;11.75;5.63;;;0.90;99.90;;;;;;5049150;28;20121;-74
2021/01/13 09:31:31;;;;;;;12.77;5.80;;;0.80;99.90;;;;;;5041663;28;20101;-74
2021/01/13 09:33:57;;;;;;;14.30;7.43;;;0.90;99.90;;;;;;5043396;28;20099;-74
2021/01/13 09:36:24;;;;;;;11.02;5.88;;;1.00;99.90;;;;;;5048009;28;20070;-74
2021/01/13 09:38:55;;;;;;;9.85;5.63;;;1.20;99.90;;;;;;5038785;28;20461;-77
2021/01/13 09:41:26;;;;;;;10.85;5.38;;;1.10;99.90;;;;;;5038922;28;20125;-75
2021/01/13 09:44:26;;;;;;;9.82;5.32;;;1.10;99.90;;;;;;5034594;28;20090;-75
2021/01/13 09:46:51;;;;;;;10.10;4.47;;;1.00;99.90;;;;;;5035714;28;20634;-75
2021/01/13 09:49:17;;;;;;;10.32;4.15;;;1.10;99.90;;;;;;5040152;28;20168;-73
2021/01/13 09:51:43;;;;;;;6.80;4.25;;;1.10;99.90;;;;;;5039476;28;20098;-73
2021/01/13 09:54:11;;;;;;;7.10;4.53;;;1.10;99.90;;;;;;5041882;28;20097;-73
2021/01/13 09:56:37;;;;;;;8.35;3.92;;;1.30;99.90;;;;;;5046528;28;20081;-76
2021/01/13 09:59:07;;;;;;;9.55;4.88;;;1.10;99.90;;;;;;5030452;28;20089;-74
2021/01/13 10:01:38;;;;;;;10.90;4.88;;;1.20;99.90;;;;;;5032382;28;20172;-74
2021/01/13 10:04:12;;;;;;;6.07;3.92;;;1.20;99.90;;;;;;5028910;28;20086;-74
2021/01/13 10:06:42;;;;;;;8.48;4.97;;;1.20;99.90;;;;;;5037402;28;20537;-74
2021/01/13 10:09:10;;;;;;;7.68;4.68;;;1.10;99.90;;;;;;5032572;28;20114;-74
2021/01/13 10:11:36;;;;;;;8.40;5.00;;;1.00;99.90;;;;;;5047800;28;20101;-73
2021/01/13 10:14:04;;;;;;;12.13;5.13;;;1.00;99.90;;;;;;5051137;28;20085;-75
2021/01/13 10:16:30;;;;;;;7.25;4.00;;;1.00;99.90;;;;;;5041786;28;20112;-74
2021/01/13 10:18:57;;;;;;;7.10;3.97;;;1.10;99.90;;;;;;5039350;28;20955;-74
2021/01/13 10:21:24;;;;;;;10.85;4.90;;;1.10;99.90;;;;;;5045032;28;20156;-74
2021/01/13 10:23:52;;;;;;;8.10;4.47;;;1.10;99.90;;;;;;5032329;28;20522;-74
2021/01/13 10:26:18;;;;;;;13.32;7.00;;;1.00;99.90;;;;;;5031974;28;20088;-74
2021/01/13 10:28:45;;;;;;;10.23;6.25;;;1.00;99.90;;;;;;5035583;28;20100;-73
2021/01/13 10:31:22;;;;;;;12.38;6.18;;;1.00;99.90;;;;;;5050240;28;20139;-74
2021/01/13 10:33:55;;;;;;;10.40;5.95;;;1.00;99.90;;;;;;5038099;28;20461;-73
2021/01/13 10:36:37;;;;;;;12.05;5.70;;;1.10;99.90;;;;;;5034234;28;20073;-73
2021/01/13 10:39:21;;;;;;;13.82;6.18;;;1.20;99.90;;;;;;5051480;28;20140;-75
2021/01/13 10:41:48;;;;;;;9.23;4.95;;;1.20;99.90;;;;;;5042356;28;20143;-75
2021/01/13 10:44:27;;;;;;;14.20;4.63;;;1.20;99.90;;;;;;5028520;28;20908;-75
2021/01/13 10:46:58;;;;;;;9.70;4.28;;;1.10;99.90;;;;;;5040535;28;20077;-74
2021/01/13 10:49:30;;;;;;;8.20;5.28;;;1.20;99.90;;;;;;5048581;28;20077;-75
2021/01/13 10:52:06;;;;;;;10.00;4.68;;;1.20;99.90;;;;;;5031053;28;20180;-74
2021/01/13 10:54:36;;;;;;;8.45;4.80;;;1.20;99.90;;;;;;5036061;28;20088;-75
2021/01/13 10:57:07;;;;;;;8.65;5.50;;;1.30;99.90;;;;;;5040421;28;20430;-72
2021/01/13 10:59:34;;;;;;;6.85;4.30;;;1.20;99.90;;;;;;5032189;28;20104;-73
2021/01/13 11:02:05;;;;;;;5.95;4.05;;;1.20;99.90;;;;;;5032668;28;20858;-72
2021/01/13 11:04:36;;;;;;;8.38;4.78;;;1.30;99.90;;;;;;5033988;28;20941;-73
2021/01/13 11:07:06;;;;;;;10.82;5.15;;;1.30;99.90;;;;;;5037535;28;20081;-73
2021/01/13 11:09:33;;;;;;;7.03;4.07;;;1.30;99.90;;;;;;5037759;28;20082;-73
2021/01/13 11:11:59;;;;;;;8.30;4.82;;;1.30;99.90;;;;;;5029288;28;20120;-72
2021/01/13 11:14:47;;;;;;;9.05;4.30;;;1.30;99.90;;;;;;5030015;28;20070;-73
2021/01/13 11:17:32;;;;;;;7.25;4.28;;;1.30;99.90;;;;;;5057517;28;20093;-73
2021/01/13 11:20:00;;;;;;;7.65;4.38;;;1.30;99.90;;;;;;5032684;28;20112;-72
2021/01/13 11:22:44;;;;;;;9.70;5.05;;;1.40;99.90;;;;;;5047019;28;20085;-74
2021/01/13 11:25:30;;;;;;;6.68;4.47;;;1.40;99.90;;;;;;5027787;28;20078;-72
2021/01/13 11:28:13;;;;;;;10.35;3.88;;;1.30;99.90;;;;;;5043610;28;20232;-74
2021/01/13 11:30:41;;;;;;;6.13;3.85;;;1.30;99.90;;;;;;5033226;28;20124;-74
2021/01/13 11:33:10;;;;;;;5.75;4.93;;;1.30;99.90;;;;;;5062875;28;21143;-73
2021/01/13 11:35:45;;;;;;;7.30;3.45;;;1.30;99.90;;;;;;5029032;28;20093;-74
2021/01/13 11:38:28;;;;;;;7.28;3.70;;;1.30;99.90;;;;;;5042572;28;20093;-72
2021/01/13 11:41:42;;;;;;;6.38;3.70;;;1.40;99.90;;;;;;5030370;28;20077;-74
2021/01/13 11:44:28;;;;;;;5.63;3.70;;;1.40;99.90;;;;;;5042824;28;20089;-74
2021/01/13 11:46:56;;;;;;;4.38;2.95;;;1.40;99.90;;;;;;5043926;28;20175;-72
2021/01/13 11:49:25;;;;;;;8.63;3.33;;;1.30;99.90;;;;;;5030854;28;20568;-73
2021/01/13 11:51:53;;;;;;;7.78;3.45;;;1.40;99.90;;;;;;5040092;28;20561;-75
2021/01/13 11:54:30;;;;;;;5.85;3.35;;;1.40;99.90;;;;;;5054332;28;20721;-74
2021/01/13 11:57:15;;;;;;;4.93;3.28;;;1.40;99.90;;;;;;5037944;28;20074;-74
2021/01/13 11:59:41;;;;;;;11.57;4.70;;;1.50;99.90;;;;;;5037600;28;20568;-74
2021/01/13 12:02:16;;;;;;;5.43;2.83;;;1.50;99.90;;;;;;5041677;28;20169;-73
2021/01/13 12:04:46;;;;;;;6.65;3.58;;;1.50;99.90;;;;;;5040390;28;20111;-73
2021/01/13 12:07:13;;;;;;;6.78;3.75;;;1.50;99.90;;;;;;5029105;28;20203;-75
2021/01/13 12:09:40;;;;;;;3.67;2.45;;;1.50;99.90;;;;;;5026228;28;20569;-74
2021/01/13 12:12:06;;;;;;;6.78;2.90;;;1.50;99.90;;;;;;5049291;28;20463;-74
2021/01/13 12:15:01;;;;;;;4.13;2.80;;;1.60;99.90;;;;;;5039054;28;20101;-75
2021/01/13 12:17:28;;;;;;;4.80;2.97;;;1.60;99.90;;;;;;5042141;28;20112;-74
2021/01/13 12:19:54;;;;;;;4.93;2.20;;;1.60;99.90;;;;;;5029315;28;20707;-74
2021/01/13 12:22:34;;;;;;;10.05;5.78;;;1.60;99.90;;;;;;5057085;28;20122;-74
2021/01/13 12:25:00;;;;;;;5.68;2.05;;;1.70;99.90;;;;;;5067735;28;20548;-75
2021/01/13 12:27:27;;;;;;;6.70;2.55;;;1.80;99.90;;;;;;5038873;28;20098;-75
2021/01/13 12:30:25;;;;;;;8.10;3.40;;;1.80;99.90;;;;;;5039300;28;20077;-76
2021/01/13 12:32:53;;;;;;;3.78;2.50;;;1.80;99.90;;;;;;5036485;28;20115;-77
2021/01/13 12:35:19;;;;;;;3.67;2.08;;;1.90;99.90;;;;;;5039806;28;20070;-73
2021/01/13 12:37:49;;;;;;;8.88;2.97;;;1.90;99.90;;;;;;5045156;28;20125;-73
2021/01/13 12:40:15;;;;;;;4.80;1.83;;;1.90;99.90;;;;;;5038157;28;20088;-73
2021/01/13 12:42:40;;;;;;;9.65;3.38;;;2.00;99.90;;;;;;5048172;28;20152;-74
2021/01/13 12:45:06;;;;;;;6.40;3.13;;;2.00;99.90;;;;;;5061965;28;20801;-74
2021/01/13 12:47:32;;;;;;;6.03;2.80;;;2.00;99.90;;;;;;5069167;28;20591;-74
2021/01/13 12:49:58;;;;;;;6.18;2.63;;;2.00;99.90;;;;;;5045432;28;20149;-73
2021/01/13 12:52:23;;;;;;;5.03;2.97;;;1.90;99.90;;;;;;5029779;28;20094;-74
2021/01/13 12:54:50;;;;;;;4.35;2.30;;;1.80;99.90;;;;;;5051691;28;20088;-74
2021/01/13 12:57:16;;;;;;;4.07;2.38;;;1.60;99.90;;;;;;5039370;28;20092;-74
2021/01/13 12:59:41;;;;;;;4.40;2.08;;;1.70;99.90;;;;;;5028371;28;20070;-76
2021/01/13 13:02:08;;;;;;;3.47;1.40;;;1.60;99.90;;;;;;5056806;28;20541;-75
2021/01/13 13:04:34;;;;;;;4.30;2.00;;;1.60;99.90;;;;;;5042641;28;20169;-75
2021/01/13 13:06:59;;;;;;;7.70;2.15;;;1.60;99.90;;;;;;5039713;28;20175;-75
2021/01/13 13:09:25;;;;;;;6.05;2.08;;;1.50;99.90;;;;;;5035220;28;20100;-73
2021/01/13 13:11:51;;;;;;;5.45;1.48;;;1.60;99.90;;;;;;5039342;28;20082;-73
2021/01/13 13:14:17;;;;;;;4.50;1.73;;;1.60;99.50;;;;;;5016886;28;20086;-75
2021/01/13 13:16:43;;;;;;;5.93;2.10;;;1.60;99.60;;;;;;5042657;28;20182;-73
2021/01/13 13:19:09;;;;;;;5.00;1.50;;;1.60;99.90;;;;;;5042640;28;20086;-72
2021/01/13 13:21:35;;;;;;;3.03;1.50;;;1.50;99.90;;;;;;5027617;28;20156;-73